Time,TemperatureF,DewpointF,PressureIn,WindDirection,WindDirectionDegrees,WindSpeedMPH,WindSpeedGustMPH,Humidity,HourlyPrecipIn,Conditions,Clouds,dailyrainin,SoftwareType,DateUTC
2013-02-23 00:00:00,41.4,38.9,30.06,ENE,68,2.0,2.0,91,0.00,OVC,,0.33,WeatherDisplay:10.37,2013-02-23 05:00:00,
2013-02-23 00:05:00,41.2,38.8,30.06,ENE,68,0.0,0.0,91,0.00,RA,,0.00,WeatherDisplay:10.37,2013-02-23 05:05:00,
2013-02-23 00:10:00,41.4,38.9,30.06,ENE,68,0.0,0.0,91,0.00,OVC,,0.00,WeatherDisplay:10.37,2013-02-23 05:10:00,
2013-02-23 00:15:00,41.4,38.9,30.06,ENE,68,0.0,0.0,91,0.00,OVC,,0.00,WeatherDisplay:10.37,2013-02-23 05:15:00,
2013-02-23 00:20:00,41.4,38.9,30.06,ENE,68,0.0,0.0,91,0.00,OVC,,0.00,WeatherDisplay:10.37,2013-02-23 05:20:00,
2013-02-23 00:25:00,41.5,39.1,30.06,ENE,68,0.0,0.0,91,0.00,OVC,,0.00,WeatherDisplay:10.37,2013-02-23 05:25:00,
2013-02-23 00:30:00,41.5,39.1,30.06,ENE,68,0.0,0.0,91,0.00,OVC,,0.00,WeatherDisplay:10.37,2013-02-23 05:30:00,
2013-02-23 00:32:00,41.5,39.1,30.05,ENE,68,0.0,0.0,91,0.00,OVC,,0.00,WeatherDisplay:10.37,2013-02-23 05:32:00,
2013-02-23 00:37:00,41.5,39.1,30.05,ENE,68,0.0,0.0,91,0.00,OVC,,0.00,WeatherDisplay:10.37,2013-02-23 05:37:00,
2013-02-23 00:42:00,41.5,39.1,30.05,ENE,68,0.0,0.0,91,0.00,OVC,,0.00,WeatherDisplay:10.37,2013-02-23 05:42:00,
2013-02-23 00:47:00,41.5,39.1,30.04,ENE,68,0.0,0.0,91,0.00,OVC,,0.00,WeatherDisplay:10.37,2013-02-23 05:47:00,
2013-02-23 00:52:00,41.5,39.1,30.04,ENE,68,0.0,0.0,91,0.00,OVC,,0.00,WeatherDisplay:10.37,2013-02-23 05:52:00,
2013-02-23 00:57:00,41.7,39.3,30.04,ENE,68,0.0,0.0,91,0.03,RA,,0.03,WeatherDisplay:10.37,2013-02-23 05:57:00,
2013-02-23 01:02:00,41.7,39.0,30.03,ENE,68,0.0,0.0,90,0.03,RA,,0.03,WeatherDisplay:10.37,2013-02-23 06:02:00,
2013-02-23 01:08:00,41.7,39.0,30.03,ENE,68,1.2,2.0,90,0.03,OVC,,0.03,WeatherDisplay:10.37,2013-02-23 06:08:00,
2013-02-23 01:13:00,41.5,38.8,30.03,ENE,68,0.0,0.0,90,0.03,OVC,,0.03,WeatherDisplay:10.37,2013-02-23 06:13:00,
2013-02-23 01:18:00,41.5,38.8,30.02,ENE,68,0.0,0.0,90,0.03,OVC,,0.03,WeatherDisplay:10.37,2013-02-23 06:18:00,
2013-02-23 01:23:00,41.5,38.8,30.02,ENE,68,0.0,0.0,90,0.03,OVC,,0.03,WeatherDisplay:10.37,2013-02-23 06:23:00,
2013-02-23 01:28:00,41.5,38.8,30.01,ENE,68,0.0,0.0,90,0.03,OVC,,0.03,WeatherDisplay:10.37,2013-02-23 06:28:00,
2013-02-23 01:33:00,41.5,38.8,30.01,ENE,68,0.0,0.0,90,0.03,OVC,,0.03,WeatherDisplay:10.37,2013-02-23 06:33:00,
2013-02-23 01:38:00,41.5,38.8,30.01,ENE,68,0.0,0.0,90,0.03,OVC,,0.03,WeatherDisplay:10.37,2013-02-23 06:38:00,
2013-02-23 01:43:00,41.5,38.8,30.01,ENE,68,0.0,0.0,90,0.03,OVC,,0.03,WeatherDisplay:10.37,2013-02-23 06:43:00,
2013-02-23 01:48:00,41.4,38.6,30.01,ENE,68,0.0,0.0,90,0.03,OVC,,0.03,WeatherDisplay:10.37,2013-02-23 06:48:00,
2013-02-23 01:53:00,41.2,38.5,30.01,ENE,68,0.0,0.0,90,0.03,OVC,,0.03,WeatherDisplay:10.37,2013-02-23 06:53:00,
2013-02-23 01:58:00,41.4,38.6,30.01,NE,45,2.0,2.0,90,0.00,OVC,,0.03,WeatherDisplay:10.37,2013-02-23 06:58:00,
2013-02-23 02:03:00,41.4,38.6,30.01,NE,45,1.2,1.2,90,0.00,OVC,,0.03,WeatherDisplay:10.37,2013-02-23 07:03:00,
2013-02-23 02:08:00,41.2,38.5,30.01,NE,45,1.2,0.0,90,0.00,OVC,,0.03,WeatherDisplay:10.37,2013-02-23 07:08:00,
2013-02-23 02:14:00,41.0,38.3,30.01,NE,45,0.0,0.0,90,0.00,OVC,,0.03,WeatherDisplay:10.37,2013-02-23 07:14:00,
2013-02-23 02:19:00,40.8,38.1,30.02,NNE,22,2.3,2.3,90,0.00,OVC,,0.03,WeatherDisplay:10.37,2013-02-23 07:19:00,
2013-02-23 02:24:00,40.8,38.1,30.02,NNE,22,2.3,2.3,90,0.00,OVC,,0.03,WeatherDisplay:10.37,2013-02-23 07:24:00,
2013-02-23 02:29:00,40.8,38.1,30.02,NNE,22,0.0,0.0,90,0.00,OVC,,0.03,WeatherDisplay:10.37,2013-02-23 07:29:00,
2013-02-23 02:34:00,40.8,38.1,30.03,NNE,22,0.0,0.0,90,0.00,OVC,,0.03,WeatherDisplay:10.37,2013-02-23 07:34:00,
2013-02-23 02:39:00,40.8,38.1,30.03,NNE,22,4.6,4.6,90,0.00,OVC,,0.06,WeatherDisplay:10.37,2013-02-23 07:39:00,
2013-02-23 02:44:00,40.8,38.1,30.02,NNE,22,2.3,0.0,90,0.03,RA,,0.06,WeatherDisplay:10.37,2013-02-23 07:44:00,
2013-02-23 02:49:00,40.8,38.1,30.03,North,0,5.8,5.8,90,0.03,RA,,0.06,WeatherDisplay:10.37,2013-02-23 07:49:00,
2013-02-23 02:54:00,40.8,38.1,30.03,North,0,1.2,1.2,90,0.03,OVC,,0.06,WeatherDisplay:10.37,2013-02-23 07:54:00,
2013-02-23 02:59:00,40.8,38.1,30.02,North,0,2.3,2.3,90,0.03,OVC,,0.06,WeatherDisplay:10.37,2013-02-23 07:59:00,
2013-02-23 03:04:00,40.8,38.1,30.02,North,0,0.0,0.3,90,0.03,OVC,,0.06,WeatherDisplay:10.37,2013-02-23 08:04:00,
2013-02-23 03:09:00,40.8,38.1,30.02,North,0,2.3,2.3,90,0.03,OVC,,0.06,WeatherDisplay:10.37,2013-02-23 08:09:00,
2013-02-23 03:14:00,40.8,38.1,30.01,North,0,0.0,0.4,90,0.06,RA,,0.09,WeatherDisplay:10.37,2013-02-23 08:14:00,
2013-02-23 03:19:00,40.8,38.1,30.00,North,0,0.0,0.0,90,0.06,RA,,0.09,WeatherDisplay:10.37,2013-02-23 08:19:00,
2013-02-23 03:24:00,40.8,38.1,29.99,North,0,0.0,0.0,90,0.06,OVC,,0.09,WeatherDisplay:10.37,2013-02-23 08:24:00,
2013-02-23 03:30:00,40.8,38.1,29.98,North,0,0.0,0.0,90,0.06,OVC,,0.09,WeatherDisplay:10.37,2013-02-23 08:30:00,
2013-02-23 03:35:00,40.8,38.1,29.98,North,0,0.0,0.0,90,0.06,OVC,,0.09,WeatherDisplay:10.37,2013-02-23 08:35:00,
2013-02-23 03:40:00,40.6,37.9,29.98,North,0,0.0,0.0,90,0.06,OVC,,0.09,WeatherDisplay:10.37,2013-02-23 08:40:00,
2013-02-23 03:45:00,40.6,37.9,29.98,North,0,0.0,0.0,90,0.03,OVC,,0.09,WeatherDisplay:10.37,2013-02-23 08:45:00,
2013-02-23 03:50:00,40.6,37.9,29.98,North,0,0.0,0.0,90,0.03,OVC,,0.09,WeatherDisplay:10.37,2013-02-23 08:50:00,
2013-02-23 03:55:00,40.6,37.9,29.98,North,0,0.0,0.0,90,0.03,OVC,,0.09,WeatherDisplay:10.37,2013-02-23 08:55:00,
2013-02-23 04:00:00,40.6,37.9,29.98,North,0,0.0,0.0,90,0.03,OVC,,0.09,WeatherDisplay:10.37,2013-02-23 09:00:00,
2013-02-23 04:05:00,40.6,37.9,29.98,North,0,0.0,0.0,90,0.03,-RA,,0.09,WeatherDisplay:10.37,2013-02-23 09:05:00,
2013-02-23 04:10:00,40.6,37.9,29.99,North,0,0.0,0.0,90,0.03,-RA,,0.09,WeatherDisplay:10.37,2013-02-23 09:10:00,
2013-02-23 04:15:00,40.8,38.1,29.98,North,0,0.0,0.0,90,0.00,-RA,,0.12,WeatherDisplay:10.37,2013-02-23 09:15:00,
2013-02-23 04:20:00,40.6,37.9,29.98,North,0,0.0,0.0,90,0.03,-RA,,0.12,WeatherDisplay:10.37,2013-02-23 09:20:00,
2013-02-23 04:25:00,40.6,37.9,29.99,North,0,0.0,0.0,90,0.03,-RA,,0.12,WeatherDisplay:10.37,2013-02-23 09:25:00,
2013-02-23 04:30:00,40.6,37.9,29.98,North,0,0.0,0.0,90,0.03,-RA,,0.12,WeatherDisplay:10.37,2013-02-23 09:30:00,
2013-02-23 04:35:00,40.6,37.9,29.97,North,0,0.0,0.0,90,0.03,-RA,,0.12,WeatherDisplay:10.37,2013-02-23 09:35:00,
2013-02-23 04:40:00,40.6,37.9,29.97,North,0,0.0,0.0,90,0.03,-RA,,0.12,WeatherDisplay:10.37,2013-02-23 09:40:00,
2013-02-23 04:46:00,40.6,37.9,29.95,North,0,0.0,0.0,90,0.03,-RA,,0.12,WeatherDisplay:10.37,2013-02-23 09:46:00,
2013-02-23 04:51:00,40.6,37.9,29.95,North,0,0.0,0.0,90,0.03,-RA,,0.12,WeatherDisplay:10.37,2013-02-23 09:51:00,
2013-02-23 04:56:00,40.6,37.9,29.93,North,0,0.0,0.0,90,0.03,-RA,,0.12,WeatherDisplay:10.37,2013-02-23 09:56:00,
2013-02-23 05:01:00,40.6,37.9,29.93,North,0,0.0,0.0,90,0.03,-RA,,0.12,WeatherDisplay:10.37,2013-02-23 10:01:00,
2013-02-23 05:06:00,40.6,37.9,29.94,North,0,0.0,0.0,90,0.03,-RA,,0.12,WeatherDisplay:10.37,2013-02-23 10:06:00,
2013-02-23 05:11:00,40.6,37.9,29.94,North,0,0.0,0.0,90,0.03,-RA,,0.12,WeatherDisplay:10.37,2013-02-23 10:11:00,
2013-02-23 05:16:00,40.6,37.9,29.95,North,0,0.0,0.0,90,0.00,-RA,,0.12,WeatherDisplay:10.37,2013-02-23 10:16:00,
2013-02-23 05:21:00,40.6,37.9,29.96,North,0,0.0,0.0,90,0.03,-RA,,0.15,WeatherDisplay:10.37,2013-02-23 10:21:00,
2013-02-23 05:26:00,40.8,38.1,29.96,North,0,0.0,0.0,90,0.03,-RA,,0.15,WeatherDisplay:10.37,2013-02-23 10:26:00,
2013-02-23 05:31:00,40.8,38.1,29.96,North,0,0.0,0.0,90,0.03,-RA,,0.15,WeatherDisplay:10.37,2013-02-23 10:31:00,
2013-02-23 05:36:00,40.8,38.1,29.95,North,0,0.0,0.0,90,0.03,-RA,,0.15,WeatherDisplay:10.37,2013-02-23 10:36:00,
2013-02-23 05:41:00,40.8,38.1,29.95,North,0,0.0,0.0,90,0.03,-RA,,0.15,WeatherDisplay:10.37,2013-02-23 10:41:00,
2013-02-23 05:46:00,40.8,38.1,29.95,North,0,0.0,0.0,90,0.03,-RA,,0.15,WeatherDisplay:10.37,2013-02-23 10:46:00,
2013-02-23 05:51:00,40.6,37.9,29.94,North,0,0.0,0.0,90,0.06,-RA,,0.18,WeatherDisplay:10.37,2013-02-23 10:51:00,
2013-02-23 05:56:00,40.8,38.1,29.94,North,0,0.0,0.0,90,0.06,-RA,,0.18,WeatherDisplay:10.37,2013-02-23 10:56:00,
2013-02-23 06:01:00,40.8,38.1,29.94,North,0,0.0,0.0,90,0.06,-RA,,0.18,WeatherDisplay:10.37,2013-02-23 11:01:00,
2013-02-23 06:06:00,40.8,38.1,29.94,North,0,0.0,0.0,90,0.06,-RA,,0.18,WeatherDisplay:10.37,2013-02-23 11:06:00,
2013-02-23 06:11:00,40.8,38.1,29.93,North,0,2.3,0.0,90,0.06,-RA,,0.18,WeatherDisplay:10.37,2013-02-23 11:11:00,
2013-02-23 06:16:00,40.8,38.1,29.93,North,0,0.0,0.0,90,0.06,-RA,,0.21,WeatherDisplay:10.37,2013-02-23 11:16:00,
2013-02-23 06:21:00,41.0,38.3,29.93,North,0,0.0,0.0,90,0.06,-RA,,0.21,WeatherDisplay:10.37,2013-02-23 11:21:00,
2013-02-23 06:26:00,40.8,38.1,29.93,North,0,0.0,0.0,90,0.06,-RA,,0.21,WeatherDisplay:10.37,2013-02-23 11:26:00,
2013-02-23 06:32:00,41.0,38.3,29.93,North,0,0.0,0.0,90,0.06,-RA,,0.21,WeatherDisplay:10.37,2013-02-23 11:32:00,
2013-02-23 06:37:00,41.0,38.3,29.93,North,0,0.0,0.0,90,0.06,-RA,,0.21,WeatherDisplay:10.37,2013-02-23 11:37:00,
2013-02-23 06:42:00,41.0,38.3,29.93,North,0,0.0,0.0,90,0.06,-RA,,0.21,WeatherDisplay:10.37,2013-02-23 11:42:00,
2013-02-23 06:47:00,41.2,38.5,29.94,North,0,0.0,0.0,90,0.06,-RA,,0.21,WeatherDisplay:10.37,2013-02-23 11:47:00,
2013-02-23 06:52:00,41.2,38.8,29.94,North,0,0.0,0.0,91,0.03,-RA,,0.21,WeatherDisplay:10.37,2013-02-23 11:52:00,
2013-02-23 06:57:00,41.2,38.8,29.94,North,0,0.0,0.0,91,0.03,-RA,,0.21,WeatherDisplay:10.37,2013-02-23 11:57:00,
2013-02-23 07:02:00,41.2,38.8,29.94,North,0,0.0,0.0,91,0.03,-RA,,0.21,WeatherDisplay:10.37,2013-02-23 12:02:00,
2013-02-23 07:07:00,41.4,38.9,29.94,North,0,0.0,0.0,91,0.03,-RA,,0.21,WeatherDisplay:10.37,2013-02-23 12:07:00,
2013-02-23 07:12:00,41.4,38.9,29.94,North,0,0.0,0.0,91,0.03,-RA,,0.21,WeatherDisplay:10.37,2013-02-23 12:12:00,
2013-02-23 07:17:00,41.4,38.9,29.94,North,0,0.0,0.0,91,0.00,-RA,,0.21,WeatherDisplay:10.37,2013-02-23 12:17:00,
2013-02-23 07:22:00,41.4,38.9,29.95,North,0,0.0,0.0,91,0.00,-RA,,0.21,WeatherDisplay:10.37,2013-02-23 12:22:00,
2013-02-23 07:27:00,41.4,38.9,29.95,North,0,0.0,0.0,91,0.00,-RA,,0.21,WeatherDisplay:10.37,2013-02-23 12:27:00,
2013-02-23 07:32:00,41.4,38.9,29.95,North,0,0.0,0.0,91,0.00,-RA,,0.21,WeatherDisplay:10.37,2013-02-23 12:32:00,
2013-02-23 07:37:00,41.4,38.9,29.93,North,0,0.0,0.0,91,0.00,-RA,,0.21,WeatherDisplay:10.37,2013-02-23 12:37:00,
2013-02-23 07:42:00,41.5,39.1,29.93,North,0,0.0,0.0,91,0.00,-RA,,0.21,WeatherDisplay:10.37,2013-02-23 12:42:00,
2013-02-23 07:47:00,41.5,39.1,29.94,North,0,0.0,0.0,91,0.00,-RA,,0.21,WeatherDisplay:10.37,2013-02-23 12:47:00,
2013-02-23 07:52:00,41.5,39.1,29.94,North,0,0.0,0.0,91,0.00,-RA,,0.21,WeatherDisplay:10.37,2013-02-23 12:52:00,
2013-02-23 07:58:00,41.5,39.1,29.94,North,0,0.0,0.0,91,0.00,-RA,,0.21,WeatherDisplay:10.37,2013-02-23 12:58:00,
2013-02-23 08:03:00,41.5,39.1,29.93,North,0,0.0,0.0,91,0.00,-RA,,0.21,WeatherDisplay:10.37,2013-02-23 13:03:00,
2013-02-23 08:08:00,41.7,39.3,29.93,North,0,0.0,0.0,91,0.00,-RA,,0.21,WeatherDisplay:10.37,2013-02-23 13:08:00,
2013-02-23 08:13:00,41.7,39.3,29.93,North,0,0.0,0.0,91,0.00,-RA,,0.21,WeatherDisplay:10.37,2013-02-23 13:13:00,
2013-02-23 08:18:00,41.7,39.3,29.93,North,0,0.0,0.0,91,0.00,-RA,,0.21,WeatherDisplay:10.37,2013-02-23 13:18:00,
2013-02-23 08:23:00,41.9,39.5,29.93,North,0,2.3,2.3,91,0.00,-RA,,0.21,WeatherDisplay:10.37,2013-02-23 13:23:00,
2013-02-23 08:28:00,41.9,39.5,29.94,NNE,22,0.0,0.0,91,0.00,-RA,,0.21,WeatherDisplay:10.37,2013-02-23 13:28:00,
2013-02-23 08:33:00,42.1,39.6,29.94,NNE,22,0.0,0.0,91,0.00,-RA,,0.21,WeatherDisplay:10.37,2013-02-23 13:33:00,
2013-02-23 08:38:00,42.1,39.6,29.94,NNE,22,0.0,0.0,91,0.00,-RA,,0.21,WeatherDisplay:10.37,2013-02-23 13:38:00,
2013-02-23 08:43:00,42.3,39.8,29.95,NNE,22,0.0,0.0,91,0.00,-RA,,0.21,WeatherDisplay:10.37,2013-02-23 13:43:00,
2013-02-23 08:48:00,42.4,40.0,29.95,NNE,22,0.0,0.0,91,0.00,-RA,,0.21,WeatherDisplay:10.37,2013-02-23 13:48:00,
2013-02-23 08:53:00,42.4,40.0,29.95,NNE,22,0.0,0.0,91,0.00,-RA,,0.21,WeatherDisplay:10.37,2013-02-23 13:53:00,
2013-02-23 08:58:00,42.4,40.0,29.95,NNE,22,0.0,0.0,91,0.00,-RA,,0.21,WeatherDisplay:10.37,2013-02-23 13:58:00,
2013-02-23 09:03:00,42.4,40.0,29.96,NNE,22,0.0,0.0,91,0.00,OVC,,0.21,WeatherDisplay:10.37,2013-02-23 14:03:00,
2013-02-23 09:08:00,42.4,40.0,29.96,NNE,22,0.0,0.0,91,0.00,OVC,,0.21,WeatherDisplay:10.37,2013-02-23 14:08:00,
2013-02-23 09:13:00,42.4,40.0,29.96,NNE,22,0.0,0.0,91,0.00,OVC,,0.21,WeatherDisplay:10.37,2013-02-23 14:13:00,
2013-02-23 09:18:00,42.6,40.2,29.95,NNE,22,0.0,0.0,91,0.00,OVC,,0.21,WeatherDisplay:10.37,2013-02-23 14:18:00,
2013-02-23 09:24:00,42.6,40.2,29.95,NNE,22,0.0,0.0,91,0.00,OVC,,0.21,WeatherDisplay:10.37,2013-02-23 14:24:00,
2013-02-23 09:29:00,42.6,40.5,29.95,NNE,22,0.0,0.0,92,0.00,OVC,,0.21,WeatherDisplay:10.37,2013-02-23 14:29:00,
2013-02-23 09:34:00,42.6,40.5,29.95,NNE,22,0.0,0.0,92,0.00,OVC,,0.21,WeatherDisplay:10.37,2013-02-23 14:34:00,
2013-02-23 09:39:00,43.0,40.8,29.94,NNE,22,0.0,0.0,92,0.00,OVC,,0.21,WeatherDisplay:10.37,2013-02-23 14:39:00,
2013-02-23 09:44:00,43.0,40.8,29.94,NNE,22,0.0,0.0,92,0.00,OVC,,0.21,WeatherDisplay:10.37,2013-02-23 14:44:00,
2013-02-23 09:49:00,43.2,41.0,29.94,NNE,22,0.0,0.0,92,0.00,OVC,,0.21,WeatherDisplay:10.37,2013-02-23 14:49:00,
2013-02-23 09:54:00,43.3,41.2,29.93,NNE,22,0.0,0.0,92,0.00,OVC,,0.21,WeatherDisplay:10.37,2013-02-23 14:54:00,
2013-02-23 09:59:00,43.5,41.4,29.93,NNE,22,0.0,0.0,92,0.00,OVC,,0.21,WeatherDisplay:10.37,2013-02-23 14:59:00,
2013-02-23 10:04:00,43.5,41.4,29.93,NNE,22,0.0,0.0,92,0.00,-RA,,0.21,WeatherDisplay:10.37,2013-02-23 15:04:00,
2013-02-23 10:09:00,43.7,41.5,29.93,NNE,22,0.0,0.0,92,0.00,-RA,,0.21,WeatherDisplay:10.37,2013-02-23 15:09:00,
2013-02-23 10:14:00,43.9,41.7,29.92,NNE,22,0.0,0.0,92,0.00,-RA,,0.21,WeatherDisplay:10.37,2013-02-23 15:14:00,
2013-02-23 10:19:00,44.2,42.1,29.93,NNE,22,0.0,0.0,92,0.00,-RA,,0.21,WeatherDisplay:10.37,2013-02-23 15:19:00,
2013-02-23 10:24:00,44.4,42.2,29.93,NNE,22,0.0,0.0,92,0.00,-RA,,0.21,WeatherDisplay:10.37,2013-02-23 15:24:00,
2013-02-23 10:29:00,44.4,42.2,29.93,NNE,22,0.0,0.0,92,0.00,-RA,,0.21,WeatherDisplay:10.37,2013-02-23 15:29:00,
2013-02-23 10:34:00,44.8,42.6,29.93,NNE,22,0.0,0.0,92,0.00,-RA,,0.21,WeatherDisplay:10.37,2013-02-23 15:34:00,
2013-02-23 10:40:00,45.0,42.8,29.93,NNE,22,0.0,0.0,92,0.00,-RA,,0.21,WeatherDisplay:10.37,2013-02-23 15:40:00,
2013-02-23 10:45:00,45.1,43.0,29.94,NNE,22,0.0,0.0,92,0.00,-RA,,0.21,WeatherDisplay:10.37,2013-02-23 15:45:00,
2013-02-23 10:50:00,45.3,43.1,29.94,NNE,22,0.0,0.0,92,0.00,-RA,,0.21,WeatherDisplay:10.37,2013-02-23 15:50:00,
2013-02-23 10:55:00,45.5,43.3,29.93,NNE,22,0.0,0.0,92,0.00,-RA,,0.21,WeatherDisplay:10.37,2013-02-23 15:55:00,
2013-02-23 11:00:00,45.7,43.8,29.93,NNE,22,0.0,0.0,93,0.00,-RA,,0.21,WeatherDisplay:10.37,2013-02-23 16:00:00,
2013-02-23 11:05:00,45.9,44.0,29.94,NNE,22,0.0,0.0,93,0.00,-RA,,0.21,WeatherDisplay:10.37,2013-02-23 16:05:00,
2013-02-23 11:10:00,46.0,44.1,29.94,NNE,22,0.0,0.0,93,0.00,-RA,,0.21,WeatherDisplay:10.37,2013-02-23 16:10:00,
2013-02-23 11:15:00,46.0,44.1,29.94,NNE,22,0.0,0.0,93,0.00,-RA,,0.21,WeatherDisplay:10.37,2013-02-23 16:15:00,
2013-02-23 11:20:00,46.2,44.3,29.94,NNE,22,0.0,0.0,93,0.00,-RA,,0.21,WeatherDisplay:10.37,2013-02-23 16:20:00,
2013-02-23 11:25:00,46.6,44.7,29.94,North,0,0.0,0.0,93,0.00,-RA,,0.21,WeatherDisplay:10.37,2013-02-23 16:25:00,
2013-02-23 11:30:00,46.9,45.0,29.94,NNE,22,0.0,0.0,93,0.00,-RA,,0.21,WeatherDisplay:10.37,2013-02-23 16:30:00,
2013-02-23 11:35:00,47.1,45.2,29.93,North,0,0.0,0.0,93,0.00,-RA,,0.21,WeatherDisplay:10.37,2013-02-23 16:35:00,
2013-02-23 11:40:00,47.1,45.2,29.94,North,0,0.0,0.0,93,0.00,-RA,,0.21,WeatherDisplay:10.37,2013-02-23 16:40:00,
2013-02-23 11:45:00,47.5,45.6,29.93,NNE,22,0.0,0.0,93,0.00,-RA,,0.21,WeatherDisplay:10.37,2013-02-23 16:45:00,
2013-02-23 11:50:00,47.7,45.7,29.93,NNE,22,0.0,0.0,93,0.00,-RA,,0.21,WeatherDisplay:10.37,2013-02-23 16:50:00,
2013-02-23 11:55:00,48.0,46.1,29.93,NNE,22,0.0,0.0,93,0.00,-RA,,0.21,WeatherDisplay:10.37,2013-02-23 16:55:00,
2013-02-23 12:00:00,48.2,46.3,29.93,NNE,22,0.0,0.0,93,0.00,-RA,,0.21,WeatherDisplay:10.37,2013-02-23 17:00:00,
2013-02-23 12:06:00,48.7,46.8,29.93,NE,45,0.0,0.0,93,0.00,OVC,,0.21,WeatherDisplay:10.37,2013-02-23 17:06:00,
2013-02-23 12:11:00,48.9,47.0,29.92,NE,45,2.5,2.5,93,0.00,OVC,,0.21,WeatherDisplay:10.37,2013-02-23 17:11:00,
2013-02-23 12:16:00,49.3,47.3,29.92,NE,45,2.3,0.0,93,0.00,OVC,,0.21,WeatherDisplay:10.37,2013-02-23 17:16:00,
2013-02-23 12:21:00,49.6,47.7,29.92,NE,45,0.0,0.0,93,0.00,OVC,,0.21,WeatherDisplay:10.37,2013-02-23 17:21:00,
2013-02-23 12:26:00,49.6,47.7,29.92,NE,45,1.2,1.2,93,0.00,OVC,,0.21,WeatherDisplay:10.37,2013-02-23 17:26:00,
2013-02-23 12:31:00,49.8,47.9,29.91,ENE,68,1.2,0.0,93,0.00,OVC,,0.21,WeatherDisplay:10.37,2013-02-23 17:31:00,
2013-02-23 12:36:00,50.2,47.9,29.91,ENE,68,0.0,0.0,92,0.00,OVC,,0.21,WeatherDisplay:10.37,2013-02-23 17:36:00,
2013-02-23 12:41:00,50.2,48.2,29.91,ENE,68,0.0,0.0,93,0.00,OVC,,0.21,WeatherDisplay:10.37,2013-02-23 17:41:00,
2013-02-23 12:46:00,50.4,48.4,29.91,ENE,68,0.0,0.0,93,0.00,OVC,,0.21,WeatherDisplay:10.37,2013-02-23 17:46:00,
2013-02-23 12:51:00,50.5,48.6,29.90,ENE,68,0.0,0.0,93,0.00,OVC,,0.21,WeatherDisplay:10.37,2013-02-23 17:51:00,
2013-02-23 12:56:00,50.7,48.5,29.90,ENE,68,0.0,0.0,92,0.00,OVC,,0.21,WeatherDisplay:10.37,2013-02-23 17:56:00,
2013-02-23 13:01:00,50.9,48.7,29.90,ENE,68,0.0,0.0,92,0.00,OVC,,0.21,WeatherDisplay:10.37,2013-02-23 18:01:00,
2013-02-23 13:06:00,51.1,48.8,29.90,ENE,68,0.0,0.0,92,0.00,OVC,,0.21,WeatherDisplay:10.37,2013-02-23 18:06:00,
2013-02-23 13:11:00,51.4,49.2,29.90,ENE,68,0.0,0.0,92,0.00,OVC,,0.21,WeatherDisplay:10.37,2013-02-23 18:11:00,
2013-02-23 13:16:00,51.6,49.4,29.90,ENE,68,0.0,0.0,92,0.00,OVC,,0.21,WeatherDisplay:10.37,2013-02-23 18:16:00,
2013-02-23 13:22:00,51.6,49.4,29.89,ENE,68,0.0,0.0,92,0.00,OVC,,0.21,WeatherDisplay:10.37,2013-02-23 18:22:00,
2013-02-23 13:27:00,52.0,49.7,29.90,ENE,68,2.3,2.3,92,0.00,OVC,,0.21,WeatherDisplay:10.37,2013-02-23 18:27:00,
2013-02-23 13:32:00,52.2,49.6,29.89,ENE,68,1.2,1.2,91,0.00,OVC,,0.21,WeatherDisplay:10.37,2013-02-23 18:32:00,
2013-02-23 13:37:00,52.2,49.6,29.89,ENE,68,2.3,2.3,91,0.00,OVC,,0.21,WeatherDisplay:10.37,2013-02-23 18:37:00,
2013-02-23 13:42:00,52.2,49.6,29.89,ENE,68,2.3,2.3,91,0.00,OVC,,0.21,WeatherDisplay:10.37,2013-02-23 18:42:00,
2013-02-23 13:47:00,52.3,49.8,29.89,ENE,68,2.9,2.9,91,0.00,OVC,,0.21,WeatherDisplay:10.37,2013-02-23 18:47:00,
2013-02-23 13:52:00,52.3,49.8,29.89,ENE,68,2.3,2.3,91,0.00,OVC,,0.21,WeatherDisplay:10.37,2013-02-23 18:52:00,
2013-02-23 13:57:00,52.3,49.8,29.89,ENE,68,2.3,2.3,91,0.00,OVC,,0.21,WeatherDisplay:10.37,2013-02-23 18:57:00,
2013-02-23 14:02:00,52.3,49.8,29.89,ENE,68,0.0,0.0,91,0.00,OVC,,0.21,WeatherDisplay:10.37,2013-02-23 19:02:00,
2013-02-23 14:07:00,52.5,50.0,29.89,ENE,68,0.0,0.0,91,0.00,OVC,,0.21,WeatherDisplay:10.37,2013-02-23 19:07:00,
2013-02-23 14:12:00,52.5,50.0,29.89,ENE,68,0.0,0.0,91,0.00,OVC,,0.21,WeatherDisplay:10.37,2013-02-23 19:12:00,
2013-02-23 14:17:00,52.5,50.0,29.89,ENE,68,0.0,0.0,91,0.00,OVC,,0.21,WeatherDisplay:10.37,2013-02-23 19:17:00,
2013-02-23 14:22:00,52.3,49.8,29.89,ENE,68,0.0,0.0,91,0.00,OVC,,0.21,WeatherDisplay:10.37,2013-02-23 19:22:00,
2013-02-23 14:27:00,52.3,49.8,29.88,SE,135,0.0,0.0,91,0.00,OVC,,0.21,WeatherDisplay:10.37,2013-02-23 19:27:00,
2013-02-23 14:32:00,52.3,49.8,29.89,SE,135,0.0,0.0,91,0.00,OVC,,0.21,WeatherDisplay:10.37,2013-02-23 19:32:00,
2013-02-23 14:37:00,52.2,49.3,29.89,SSW,202,0.0,0.0,90,0.00,OVC,,0.21,WeatherDisplay:10.37,2013-02-23 19:37:00,
2013-02-23 14:42:00,52.0,49.4,29.88,WSW,248,0.0,0.0,91,0.00,OVC,,0.21,WeatherDisplay:10.37,2013-02-23 19:42:00,
2013-02-23 14:48:00,52.2,49.6,29.88,WSW,248,0.0,0.0,91,0.00,OVC,,0.21,WeatherDisplay:10.37,2013-02-23 19:48:00,
2013-02-23 14:53:00,52.2,49.6,29.88,WSW,248,0.0,0.0,91,0.00,OVC,,0.21,WeatherDisplay:10.37,2013-02-23 19:53:00,
2013-02-23 14:58:00,52.0,49.4,29.88,WSW,248,0.0,0.0,91,0.00,OVC,,0.21,WeatherDisplay:10.37,2013-02-23 19:58:00,
2013-02-23 15:03:00,52.2,49.6,29.88,WSW,248,0.0,0.0,91,0.00,OVC,,0.21,WeatherDisplay:10.37,2013-02-23 20:03:00,
2013-02-23 15:08:00,52.3,49.8,29.88,WSW,248,0.0,0.0,91,0.00,OVC,,0.21,WeatherDisplay:10.37,2013-02-23 20:08:00,
2013-02-23 15:13:00,52.2,49.6,29.88,WSW,248,0.0,0.0,91,0.00,OVC,,0.21,WeatherDisplay:10.37,2013-02-23 20:13:00,
2013-02-23 15:18:00,52.3,49.8,29.88,WSW,248,0.0,0.0,91,0.00,OVC,,0.21,WeatherDisplay:10.37,2013-02-23 20:18:00,
2013-02-23 15:23:00,52.3,49.8,29.87,North,0,0.0,0.0,91,0.00,OVC,,0.21,WeatherDisplay:10.37,2013-02-23 20:23:00,
2013-02-23 15:28:00,52.3,49.8,29.87,North,0,0.0,0.0,91,0.00,OVC,,0.21,WeatherDisplay:10.37,2013-02-23 20:28:00,
2013-02-23 15:33:00,52.5,50.0,29.87,North,0,0.0,0.0,91,0.00,OVC,,0.21,WeatherDisplay:10.37,2013-02-23 20:33:00,
2013-02-23 15:38:00,52.5,50.0,29.88,North,0,0.0,0.0,91,0.00,OVC,,0.21,WeatherDisplay:10.37,2013-02-23 20:38:00,
2013-02-23 15:43:00,52.9,50.3,29.88,North,0,0.0,0.0,91,0.00,OVC,,0.21,WeatherDisplay:10.37,2013-02-23 20:43:00,
2013-02-23 15:48:00,52.9,50.3,29.88,North,0,0.0,0.0,91,0.00,OVC,,0.21,WeatherDisplay:10.37,2013-02-23 20:48:00,
2013-02-23 15:53:00,52.9,50.3,29.88,North,0,0.0,0.0,91,0.00,OVC,,0.21,WeatherDisplay:10.37,2013-02-23 20:53:00,
2013-02-23 15:58:00,52.9,50.3,29.88,North,0,0.0,0.0,91,0.00,OVC,,0.21,WeatherDisplay:10.37,2013-02-23 20:58:00,
2013-02-23 16:04:00,52.9,50.3,29.88,North,0,0.0,0.0,91,0.00,OVC,,0.21,WeatherDisplay:10.37,2013-02-23 21:04:00,
2013-02-23 16:09:00,52.7,50.1,29.88,North,0,0.0,0.0,91,0.00,OVC,,0.21,WeatherDisplay:10.37,2013-02-23 21:09:00,
2013-02-23 16:14:00,52.7,50.1,29.88,North,0,0.0,0.0,91,0.00,OVC,,0.21,WeatherDisplay:10.37,2013-02-23 21:14:00,
2013-02-23 16:19:00,52.5,50.0,29.87,North,0,0.0,0.0,91,0.00,OVC,,0.21,WeatherDisplay:10.37,2013-02-23 21:19:00,
2013-02-23 16:24:00,52.5,50.0,29.87,North,0,0.0,0.0,91,0.00,OVC,,0.21,WeatherDisplay:10.37,2013-02-23 21:24:00,
2013-02-23 16:29:00,52.5,50.0,29.86,North,0,0.0,0.0,91,0.00,OVC,,0.21,WeatherDisplay:10.37,2013-02-23 21:29:00,
2013-02-23 16:34:00,52.5,50.0,29.87,NNW,338,0.0,0.0,91,0.00,OVC,,0.21,WeatherDisplay:10.37,2013-02-23 21:34:00,
2013-02-23 16:39:00,52.5,50.0,29.87,NNW,338,0.0,0.0,91,0.00,OVC,,0.21,WeatherDisplay:10.37,2013-02-23 21:39:00,
2013-02-23 16:44:00,52.3,49.8,29.87,WNW,292,0.0,0.0,91,0.00,OVC,,0.21,WeatherDisplay:10.37,2013-02-23 21:44:00,
2013-02-23 16:49:00,52.3,49.8,29.87,WNW,292,0.0,0.0,91,0.00,OVC,,0.21,WeatherDisplay:10.37,2013-02-23 21:49:00,
2013-02-23 16:54:00,52.3,49.8,29.87,West,270,0.0,0.0,91,0.00,OVC,,0.21,WeatherDisplay:10.37,2013-02-23 21:54:00,
2013-02-23 16:59:00,52.2,49.6,29.86,West,270,0.0,0.0,91,0.00,OVC,,0.21,WeatherDisplay:10.37,2013-02-23 21:59:00,
2013-02-23 17:04:00,52.2,49.6,29.86,West,270,0.0,0.0,91,0.00,OVC,,0.21,WeatherDisplay:10.37,2013-02-23 22:04:00,
2013-02-23 17:09:00,52.0,49.4,29.85,WNW,292,0.0,0.0,91,0.00,OVC,,0.21,WeatherDisplay:10.37,2013-02-23 22:09:00,
2013-02-23 17:14:00,52.0,49.4,29.86,WNW,292,0.0,0.0,91,0.00,OVC,,0.21,WeatherDisplay:10.37,2013-02-23 22:14:00,
2013-02-23 17:19:00,52.0,49.4,29.86,WNW,292,0.0,0.0,91,0.00,OVC,,0.21,WeatherDisplay:10.37,2013-02-23 22:19:00,
2013-02-23 17:24:00,52.0,49.4,29.85,WNW,292,0.0,0.0,91,0.00,OVC,,0.21,WeatherDisplay:10.37,2013-02-23 22:24:00,
2013-02-23 17:29:00,52.0,49.4,29.85,WNW,292,0.0,0.0,91,0.00,OVC,,0.21,WeatherDisplay:10.37,2013-02-23 22:29:00,
2013-02-23 17:34:00,52.2,49.6,29.85,WNW,292,0.0,0.0,91,0.00,OVC,,0.21,WeatherDisplay:10.37,2013-02-23 22:34:00,
2013-02-23 17:39:00,52.0,49.4,29.85,WNW,292,0.0,0.0,91,0.00,OVC,,0.21,WeatherDisplay:10.37,2013-02-23 22:39:00,
2013-02-23 17:44:00,52.0,49.4,29.85,WNW,292,0.0,0.0,91,0.00,OVC,,0.21,WeatherDisplay:10.37,2013-02-23 22:44:00,
2013-02-23 17:49:00,52.0,49.4,29.85,WNW,292,0.0,0.0,91,0.00,OVC,,0.21,WeatherDisplay:10.37,2013-02-23 22:49:00,
2013-02-23 17:54:00,52.0,49.4,29.85,WNW,292,0.0,0.0,91,0.00,OVC,,0.21,WeatherDisplay:10.37,2013-02-23 22:54:00,
2013-02-23 18:00:00,52.0,49.4,29.85,WNW,292,0.0,0.0,91,0.00,OVC,,0.21,WeatherDisplay:10.37,2013-02-23 23:00:00,
2013-02-23 18:05:00,51.8,49.3,29.84,WNW,292,0.0,0.0,91,0.00,OVC,,0.21,WeatherDisplay:10.37,2013-02-23 23:05:00,
2013-02-23 18:10:00,51.8,49.3,29.84,WNW,292,0.0,0.0,91,0.00,OVC,,0.21,WeatherDisplay:10.37,2013-02-23 23:10:00,
2013-02-23 18:15:00,51.6,49.1,29.84,WNW,292,0.0,0.0,91,0.00,OVC,,0.21,WeatherDisplay:10.37,2013-02-23 23:15:00,
2013-02-23 18:20:00,51.6,49.1,29.84,WNW,292,0.0,0.0,91,0.00,OVC,,0.21,WeatherDisplay:10.37,2013-02-23 23:20:00,
2013-02-23 18:25:00,51.6,49.1,29.83,NW,315,0.0,0.0,91,0.00,OVC,,0.21,WeatherDisplay:10.37,2013-02-23 23:25:00,
2013-02-23 18:30:00,51.4,48.9,29.84,NW,315,0.0,0.0,91,0.00,OVC,,0.21,WeatherDisplay:10.37,2013-02-23 23:30:00,
2013-02-23 18:35:00,51.4,48.9,29.85,NNW,338,0.0,0.0,91,0.00,OVC,,0.21,WeatherDisplay:10.37,2013-02-23 23:35:00,
2013-02-23 18:40:00,51.4,48.9,29.85,NNW,338,0.0,0.0,91,0.00,OVC,,0.21,WeatherDisplay:10.37,2013-02-23 23:40:00,
2013-02-23 18:45:00,51.3,48.7,29.85,NNW,338,0.0,0.0,91,0.00,OVC,,0.21,WeatherDisplay:10.37,2013-02-23 23:45:00,
2013-02-23 18:50:00,51.1,48.5,29.85,NNW,338,0.0,0.0,91,0.00,OVC,,0.21,WeatherDisplay:10.37,2013-02-23 23:50:00,
2013-02-23 18:55:00,51.1,48.5,29.85,NNW,338,0.0,0.0,91,0.00,OVC,,0.21,WeatherDisplay:10.37,2013-02-23 23:55:00,
2013-02-23 19:00:00,51.1,48.5,29.85,NNW,338,0.0,0.0,91,0.00,OVC,,0.21,WeatherDisplay:10.37,2013-02-24 00:00:00,
2013-02-23 19:05:00,50.9,48.4,29.85,NNW,338,0.0,0.0,91,0.00,OVC,,0.21,WeatherDisplay:10.37,2013-02-24 00:05:00,
2013-02-23 19:10:00,50.7,48.2,29.85,NNW,338,0.0,0.0,91,0.00,OVC,,0.21,WeatherDisplay:10.37,2013-02-24 00:10:00,
2013-02-23 19:16:00,50.7,48.2,29.85,NNW,338,0.0,0.0,91,0.00,OVC,,0.21,WeatherDisplay:10.37,2013-02-24 00:16:00,
2013-02-23 19:21:00,50.5,48.0,29.85,NNW,338,0.0,0.0,91,0.00,OVC,,0.21,WeatherDisplay:10.37,2013-02-24 00:21:00,
2013-02-23 19:26:00,50.5,48.0,29.85,NNW,338,0.0,0.0,91,0.00,OVC,,0.21,WeatherDisplay:10.37,2013-02-24 00:26:00,
2013-02-23 19:31:00,50.5,48.0,29.84,NNW,338,0.0,0.0,91,0.00,OVC,,0.21,WeatherDisplay:10.37,2013-02-24 00:31:00,
2013-02-23 19:36:00,50.4,47.8,29.85,NNW,338,0.0,0.0,91,0.00,OVC,,0.21,WeatherDisplay:10.37,2013-02-24 00:36:00,
2013-02-23 19:41:00,50.2,47.7,29.85,NNW,338,0.0,0.0,91,0.00,OVC,,0.21,WeatherDisplay:10.37,2013-02-24 00:41:00,
2013-02-23 19:46:00,50.2,47.7,29.86,NNW,338,0.0,0.0,91,0.00,OVC,,0.21,WeatherDisplay:10.37,2013-02-24 00:46:00,
2013-02-23 19:51:00,50.2,47.7,29.86,NNW,338,0.0,0.0,91,0.00,OVC,,0.21,WeatherDisplay:10.37,2013-02-24 00:51:00,
2013-02-23 19:56:00,49.8,47.3,29.86,NNW,338,0.0,0.0,91,0.00,OVC,,0.21,WeatherDisplay:10.37,2013-02-24 00:56:00,
2013-02-23 20:01:00,49.8,47.3,29.85,NNW,338,0.0,0.0,91,0.00,OVC,,0.21,WeatherDisplay:10.37,2013-02-24 01:01:00,
2013-02-23 20:06:00,49.6,47.1,29.85,NNW,338,0.0,0.0,91,0.00,OVC,,0.21,WeatherDisplay:10.37,2013-02-24 01:06:00,
2013-02-23 20:11:00,49.6,47.1,29.85,NNW,338,0.0,0.0,91,0.00,OVC,,0.21,WeatherDisplay:10.37,2013-02-24 01:11:00,
2013-02-23 20:16:00,49.3,46.8,29.85,NNW,338,0.0,0.0,91,0.00,OVC,,0.21,WeatherDisplay:10.37,2013-02-24 01:16:00,
2013-02-23 20:21:00,49.1,46.6,29.85,NNW,338,0.0,0.0,91,0.00,OVC,,0.21,WeatherDisplay:10.37,2013-02-24 01:21:00,
2013-02-23 20:26:00,48.9,46.4,29.85,NNW,338,0.0,0.0,91,0.00,OVC,,0.21,WeatherDisplay:10.37,2013-02-24 01:26:00,
2013-02-23 20:32:00,48.9,46.4,29.85,NNW,338,0.0,0.0,91,0.00,OVC,,0.21,WeatherDisplay:10.37,2013-02-24 01:32:00,
2013-02-23 20:37:00,48.9,46.4,29.86,NNW,338,0.0,0.0,91,0.00,OVC,,0.21,WeatherDisplay:10.37,2013-02-24 01:37:00,
2013-02-23 20:42:00,48.9,46.4,29.86,NNW,338,0.0,0.0,91,0.00,OVC,,0.21,WeatherDisplay:10.37,2013-02-24 01:42:00,
2013-02-23 20:47:00,48.7,46.2,29.86,NNW,338,0.0,0.0,91,0.00,OVC,,0.21,WeatherDisplay:10.37,2013-02-24 01:47:00,
2013-02-23 20:52:00,48.7,46.2,29.86,NNW,338,0.0,0.0,91,0.00,OVC,,0.21,WeatherDisplay:10.37,2013-02-24 01:52:00,
2013-02-23 20:57:00,48.7,46.2,29.86,NNW,338,0.0,0.0,91,0.00,OVC,,0.21,WeatherDisplay:10.37,2013-02-24 01:57:00,
2013-02-23 21:02:00,48.7,46.2,29.85,NNW,338,0.0,0.0,91,0.00,BKN,,0.21,WeatherDisplay:10.37,2013-02-24 02:02:00,
2013-02-23 21:07:00,48.7,46.2,29.86,NNW,338,0.0,0.0,91,0.00,BKN,,0.21,WeatherDisplay:10.37,2013-02-24 02:07:00,
2013-02-23 21:12:00,48.7,46.2,29.86,NNW,338,0.0,0.0,91,0.00,BKN,,0.21,WeatherDisplay:10.37,2013-02-24 02:12:00,
2013-02-23 21:17:00,48.7,46.2,29.85,NNW,338,0.0,0.0,91,0.00,BKN,,0.21,WeatherDisplay:10.37,2013-02-24 02:17:00,
2013-02-23 21:22:00,48.7,46.2,29.86,NNW,338,0.0,0.0,91,0.00,BKN,,0.21,WeatherDisplay:10.37,2013-02-24 02:22:00,
2013-02-23 21:27:00,48.7,46.2,29.86,NNW,338,0.0,0.0,91,0.00,BKN,,0.21,WeatherDisplay:10.37,2013-02-24 02:27:00,
2013-02-23 21:32:00,48.7,46.2,29.86,NNW,338,0.0,0.0,91,0.00,BKN,,0.21,WeatherDisplay:10.37,2013-02-24 02:32:00,
2013-02-23 21:37:00,48.7,46.2,29.85,NNW,338,0.0,0.0,91,0.00,BKN,,0.21,WeatherDisplay:10.37,2013-02-24 02:37:00,
2013-02-23 21:42:00,48.7,46.2,29.85,NNW,338,0.0,0.0,91,0.00,BKN,,0.21,WeatherDisplay:10.37,2013-02-24 02:42:00,
2013-02-23 21:48:00,48.7,46.2,29.85,NNW,338,0.0,0.0,91,0.00,BKN,,0.21,WeatherDisplay:10.37,2013-02-24 02:48:00,
2013-02-23 21:53:00,48.7,46.2,29.85,NNW,338,0.0,0.0,91,0.00,BKN,,0.21,WeatherDisplay:10.37,2013-02-24 02:53:00,
2013-02-23 21:58:00,48.7,46.2,29.85,NNW,338,0.0,0.0,91,0.00,BKN,,0.21,WeatherDisplay:10.37,2013-02-24 02:58:00,
2013-02-23 22:03:00,48.7,46.2,29.86,NNW,338,0.0,0.0,91,0.00,OVC,,0.21,WeatherDisplay:10.37,2013-02-24 03:03:00,
2013-02-23 22:08:00,48.7,46.2,29.85,NNW,338,0.0,0.0,91,0.00,OVC,,0.21,WeatherDisplay:10.37,2013-02-24 03:08:00,
2013-02-23 22:13:00,48.7,46.5,29.86,NNW,338,0.0,0.0,92,0.00,OVC,,0.21,WeatherDisplay:10.37,2013-02-24 03:13:00,
2013-02-23 22:18:00,48.7,46.5,29.86,NNW,338,0.0,0.0,92,0.00,OVC,,0.21,WeatherDisplay:10.37,2013-02-24 03:18:00,
2013-02-23 22:23:00,48.7,46.5,29.86,NNW,338,0.0,0.0,92,0.00,OVC,,0.21,WeatherDisplay:10.37,2013-02-24 03:23:00,
2013-02-23 22:28:00,48.7,46.5,29.86,NNW,338,0.0,0.0,92,0.00,OVC,,0.21,WeatherDisplay:10.37,2013-02-24 03:28:00,
2013-02-23 22:33:00,48.7,46.5,29.86,NNW,338,0.0,0.0,92,0.00,OVC,,0.21,WeatherDisplay:10.37,2013-02-24 03:33:00,
2013-02-23 22:38:00,48.7,46.5,29.86,NNW,338,0.0,0.0,92,0.00,OVC,,0.21,WeatherDisplay:10.37,2013-02-24 03:38:00,
2013-02-23 22:43:00,48.7,46.5,29.86,NNW,338,0.0,0.0,92,0.00,OVC,,0.21,WeatherDisplay:10.37,2013-02-24 03:43:00,
2013-02-23 22:48:00,48.7,46.5,29.86,NNW,338,0.0,0.0,92,0.00,OVC,,0.21,WeatherDisplay:10.37,2013-02-24 03:48:00,
2013-02-23 22:54:00,48.7,46.5,29.86,NNW,338,0.0,0.0,92,0.00,OVC,,0.21,WeatherDisplay:10.37,2013-02-24 03:54:00,
2013-02-23 22:59:00,48.7,46.5,29.87,NNW,338,0.0,0.0,92,0.00,OVC,,0.21,WeatherDisplay:10.37,2013-02-24 03:59:00,
2013-02-23 23:04:00,48.7,46.5,29.87,NNW,338,0.0,0.0,92,0.00,FEW,,0.21,WeatherDisplay:10.37,2013-02-24 04:04:00,
2013-02-23 23:09:00,48.6,46.3,29.87,NNW,338,0.0,0.0,92,0.00,FEW,,0.21,WeatherDisplay:10.37,2013-02-24 04:09:00,
2013-02-23 23:14:00,48.7,46.5,29.86,NNW,338,0.0,0.0,92,0.00,FEW,,0.21,WeatherDisplay:10.37,2013-02-24 04:14:00,
2013-02-23 23:19:00,48.7,46.5,29.86,NNW,338,0.0,0.0,92,0.00,FEW,,0.21,WeatherDisplay:10.37,2013-02-24 04:19:00,
2013-02-23 23:24:00,48.7,46.5,29.86,NNW,338,0.0,0.0,92,0.00,FEW,,0.21,WeatherDisplay:10.37,2013-02-24 04:24:00,
2013-02-23 23:29:00,48.7,46.5,29.86,NNW,338,0.0,0.0,92,0.00,FEW,,0.21,WeatherDisplay:10.37,2013-02-24 04:29:00,
2013-02-23 23:34:00,48.7,46.5,29.86,NNW,338,0.0,0.0,92,0.00,FEW,,0.21,WeatherDisplay:10.37,2013-02-24 04:34:00,
2013-02-23 23:39:00,48.7,46.5,29.86,NNW,338,0.0,0.0,92,0.00,FEW,,0.21,WeatherDisplay:10.37,2013-02-24 04:39:00,
2013-02-23 23:44:00,48.7,46.5,29.86,NNW,338,0.0,0.0,92,0.00,FEW,,0.21,WeatherDisplay:10.37,2013-02-24 04:44:00,
2013-02-23 23:49:00,48.7,46.5,29.87,NNW,338,0.0,0.0,92,0.00,FEW,,0.21,WeatherDisplay:10.37,2013-02-24 04:49:00,
2013-02-23 23:54:00,48.6,46.3,29.87,NNW,338,0.0,0.0,92,0.00,FEW,,0.21,WeatherDisplay:10.37,2013-02-24 04:54:00,
2013-02-23 23:59:00,48.6,46.3,29.87,NNW,338,0.0,0.0,92,0.00,FEW,,0.21,WeatherDisplay:10.37,2013-02-24 04:59:00,